PWSweather.com
Personal Weather Stations
Station Observations
BLACKWELL
Blackwell, AlfretonGB DE55

BlackwellAlfretonGB DE55

Lat: 53.12076, Lon: -1.354978

Elevation: 410

Station Type: Vantage Pro

High Low Average
Temperature 28.8°F-1.8°C 21.6°F-5.8°C 25.7°F-3.5°C
Dew Point 24.6°F-4.1°C 18.5°F-7.5°C 22.5°F-5.3°C
Winds 6.0 mph 9.7 kmh 2.0 mph 3.2 kmh 4.0 mph ENE6.4 kmh ENE
Wind Gusts 12.0 mph19.3 kmh 5.0 mph8.0 kmh 9.0 mph14.5 kmh
Humidity 92% 82% 88%
Pressure 29.96 in1014.6 mb 29.55 in1000.7 mb -
Precipitation 0.00 in0.0 mm - -
Hour Temp Dew Point Humidity Winds Wind Gusts Pressure Precip Precip Rate Daily Precip Total
12:35 AM 21.6°F-5.8°C 18.5°F-7.5°C 88% 2.0 mph ENE3.2 kmh ENE 5.0 mph8.0 kmh 29.96 in1014.6 mb 0.00 in0.0 mm 0.00 in0.0 mm 0.00 in0.0 mm
01:35 AM 21.6°F-5.8°C 18.9°F-7.3°C 89% 3.0 mph ENE4.8 kmh ENE 6.0 mph9.7 kmh 29.94 in1013.9 mb 0.00 in0.0 mm 0.00 in0.0 mm 0.00 in0.0 mm
02:35 AM 21.7°F-5.7°C 19.2°F-7.1°C 90% 3.0 mph ENE4.8 kmh ENE 5.0 mph8.0 kmh 29.91 in1012.9 mb 0.00 in0.0 mm 0.00 in0.0 mm 0.00 in0.0 mm
03:35 AM 22.3°F-5.4°C 19.8°F-6.8°C 90% 3.0 mph NE4.8 kmh NE 6.0 mph9.7 kmh 29.88 in1011.9 mb 0.00 in0.0 mm 0.00 in0.0 mm 0.00 in0.0 mm
04:35 AM 22.5°F-5.3°C 20.3°F-6.5°C 91% 3.0 mph ENE4.8 kmh ENE 7.0 mph11.3 kmh 29.86 in1011.2 mb 0.00 in0.0 mm 0.00 in0.0 mm 0.00 in0.0 mm
05:35 AM 22.8°F-5.1°C 20.3°F-6.5°C 90% 4.0 mph ENE6.4 kmh ENE 7.0 mph11.3 kmh 29.83 in1010.2 mb 0.00 in0.0 mm 0.00 in0.0 mm 0.00 in0.0 mm
06:35 AM 23.2°F-4.9°C 20.8°F-6.2°C 91% 4.0 mph ENE6.4 kmh ENE 8.0 mph12.9 kmh 29.81 in1009.5 mb 0.00 in0.0 mm 0.00 in0.0 mm 0.00 in0.0 mm
07:35 AM 23.5°F-4.7°C 21.6°F-5.8°C 92% 3.0 mph ENE4.8 kmh ENE 6.0 mph9.7 kmh 29.79 in1008.8 mb 0.00 in0.0 mm 0.00 in0.0 mm 0.00 in0.0 mm
08:35 AM 24.3°F-4.3°C 22.3°F-5.4°C 92% 4.0 mph ENE6.4 kmh ENE 7.0 mph11.3 kmh 29.77 in1008.1 mb 0.00 in0.0 mm 0.00 in0.0 mm 0.00 in0.0 mm
09:35 AM 25.2°F-3.8°C 23.2°F-4.9°C 92% 4.0 mph ENE6.4 kmh ENE 9.0 mph14.5 kmh 29.75 in1007.5 mb 0.00 in0.0 mm 0.00 in0.0 mm 0.00 in0.0 mm
10:35 AM 25.7°F-3.5°C 23.4°F-4.8°C 91% 5.0 mph ENE8.0 kmh ENE 11.0 mph17.7 kmh 29.73 in1006.8 mb 0.00 in0.0 mm 0.00 in0.0 mm 0.00 in0.0 mm
11:35 AM 26.6°F-3.0°C 23.7°F-4.6°C 89% 4.0 mph ENE6.4 kmh ENE 7.0 mph11.3 kmh 29.70 in1005.8 mb 0.00 in0.0 mm 0.00 in0.0 mm 0.00 in0.0 mm
12:35 PM 27.0°F-2.8°C 24.3°F-4.3°C 89% 5.0 mph ENE8.0 kmh ENE 12.0 mph19.3 kmh 29.69 in1005.4 mb 0.00 in0.0 mm 0.00 in0.0 mm 0.00 in0.0 mm
01:35 PM 27.3°F-2.6°C 23.2°F-4.9°C 84% 6.0 mph ENE9.7 kmh ENE 12.0 mph19.3 kmh 29.66 in1004.4 mb 0.00 in0.0 mm 0.00 in0.0 mm 0.00 in0.0 mm
02:35 PM 27.3°F-2.6°C 23.7°F-4.6°C 86% 5.0 mph ENE8.0 kmh ENE 10.0 mph16.1 kmh 29.63 in1003.4 mb 0.00 in0.0 mm 0.00 in0.0 mm 0.00 in0.0 mm
03:35 PM 27.9°F-2.3°C 23.5°F-4.7°C 84% 5.0 mph ENE8.0 kmh ENE 9.0 mph14.5 kmh 29.62 in1003.0 mb 0.00 in0.0 mm 0.00 in0.0 mm 0.00 in0.0 mm
04:35 PM 27.9°F-2.3°C 23.4°F-4.8°C 83% 6.0 mph ENE9.7 kmh ENE 12.0 mph19.3 kmh 29.61 in1002.7 mb 0.00 in0.0 mm 0.00 in0.0 mm 0.00 in0.0 mm
05:35 PM 27.3°F-2.6°C 24.1°F-4.4°C 87% 5.0 mph ENE8.0 kmh ENE 12.0 mph19.3 kmh 29.61 in1002.7 mb 0.00 in0.0 mm 0.00 in0.0 mm 0.00 in0.0 mm
06:35 PM 27.7°F-2.4°C 24.3°F-4.3°C 87% 5.0 mph ENE8.0 kmh ENE 9.0 mph14.5 kmh 29.61 in1002.7 mb 0.00 in0.0 mm 0.00 in0.0 mm 0.00 in0.0 mm
07:35 PM 28.4°F-2.0°C 24.3°F-4.3°C 84% 6.0 mph ENE9.7 kmh ENE 11.0 mph17.7 kmh 29.58 in1001.7 mb 0.00 in0.0 mm 0.00 in0.0 mm 0.00 in0.0 mm
08:35 PM 28.2°F-2.1°C 24.6°F-4.1°C 86% 5.0 mph ENE8.0 kmh ENE 12.0 mph19.3 kmh 29.57 in1001.4 mb 0.00 in0.0 mm 0.00 in0.0 mm 0.00 in0.0 mm
09:35 PM 28.6°F-1.9°C 24.3°F-4.3°C 84% 5.0 mph ENE8.0 kmh ENE 10.0 mph16.1 kmh 29.56 in1001.0 mb 0.00 in0.0 mm 0.00 in0.0 mm 0.00 in0.0 mm
10:35 PM 28.8°F-1.8°C 24.1°F-4.4°C 82% 5.0 mph ENE8.0 kmh ENE 8.0 mph12.9 kmh 29.55 in1000.7 mb 0.00 in0.0 mm 0.00 in0.0 mm 0.00 in0.0 mm
11:35 PM 28.8°F-1.8°C 23.9°F-4.5°C 82% 5.0 mph ENE8.0 kmh ENE 11.0 mph17.7 kmh 29.55 in1000.7 mb 0.00 in0.0 mm 0.00 in0.0 mm 0.00 in0.0 mm